Terminal Aerodrome Forecast
Issued by NWS Sioux Falls, SD

Home | Current Version | Previous Version | Graphics & Text | Print | Product List | Glossary On
Versions: 1 2 3 4 5 6 7 8 9 10 11 12 13 14 15 16 17 18
607
FTUS43 KFSD 242326
TAFFSD
TAF
KFSD 242326Z 2500/2524 14005KT P6SM FEW100
     FM250500 13007KT P6SM BKN090
     FM250800 12006KT P6SM SHRA VCTS BKN040CB OVC090
     FM251200 13007KT 6SM SHRA VCTS OVC020CB
     FM251500 16010KT P6SM BKN040
     FM252000 19010KT P6SM BKN050=

USA.gov is the U.S. government's official web portal to all federal, state and local government web resources and services.